Altona, NY

7:21 AM EDT on October 20, 2014 (GMT -0400)
KNYELLEN2 | Change Station
CLOSE
Current Station
Personal Weather Station
Location: Ellenburg Depot, NY
Elevation: 1000 ft
Nearby Weather Stations

Elev 1000 ft 44.91 °N, 73.82 °W | Updated 4 seconds ago

Overcast
Overcast
29.4 °F
Feels Like 29 °F
N
0.0
Wind Variable Wind from WSW
Gusts 4.0 mph

Today
High -- | Low -- °F
--% Chance of Precip.
Yesterday
High -- | Low -- °F
Precip. -- in
7:16 AM 6:01 PM
Waning Crescent, 11% visible
Pressure 30.01 in
Visibility 10.0 miles
Clouds Overcast 12000 ft
Windchill 29 °F
Dew Point 25 °F
Humidity 84%
Rainfall 0.00 in
Snow Depth Not available.
UV 0 out of 12
Pollen .10 out of 12
Air Quality Not available.
Flu Activity Sporadic
METAR KPBG 201053Z AUTO 00000KT 10SM OVC120 M02/M03 A3000 RMK AO2 SLP160 T10171028

More Conditions Fewer Conditions

Pressure 30.01 in
Visibility 10.0 miles
Clouds Overcast 12000 ft
Windchill 29 °F
Dew Point 25 °F
Humidity 84%
Rainfall 0.00 in
Snow Depth Not available.
UV 0 out of 12
Pollen .10 out of 12
Air Quality Not available.
Flu Activity Sporadic
METAR KPBG 201053Z AUTO 00000KT 10SM OVC120 M02/M03 A3000 RMK AO2 SLP160 T10171028

More Conditions Fewer Conditions

10-Day Weather Forecast

Almanac

Astronomy

Oct. 20, 2014 Rise Set
Actual Time 7:16 AM EDT 6:01 PM EDT
Civil Twilight 6:46 AM EDT 6:31 PM EDT
Nautical Twilight 6:12 AM EDT 7:05 PM EDT
Astronomical Twilight 5:38 AM EDT 7:39 PM EDT
Moon 3:54 AM EDT 4:29 PM EDT
Length of Visible Light 11h 44m
Length of Day
10h 44m
Waning Crescent, 11% of the Moon is Illuminated
Today
Waning Crescent
Oct 23
New
Oct 30
First Quarter
Nov 6
Full
Nov 14
Last Quarter

Today's Extremes

State Highs State Lows

Community

WunderPhotos

Upload Photos

1,763,338 photos uploaded!

Nearby

Air Quality

  Air Quality AQ Index Pollutant
Monday Good
PM2.5

Snow Depth

Station Depth Elevation
No new snow has been reported.

Earthquake Activity

City Distance Mag. Time & Date
No recent earthquake activity has been reported nearby.
Minimum magnitude displayed is 2.5.

Coastal Water Temperatures

Place Temperature
No Stations Reporting

Nearby Weather Stations